sensor_id;sensor_type;location;lat;lon;timestamp;P1;durP1;ratioP1;P2;durP2;ratioP2
50954;SDS011;36966;48.064;-0.792;2022-08-25T00:01:53;2.42;;;0.70;;
50954;SDS011;36966;48.064;-0.792;2022-08-25T00:04:15;1.75;;;0.40;;
50954;SDS011;36966;48.064;-0.792;2022-08-25T00:06:36;2.85;;;0.50;;
50954;SDS011;36966;48.064;-0.792;2022-08-25T00:08:57;2.28;;;0.50;;
50954;SDS011;36966;48.064;-0.792;2022-08-25T00:11:19;1.13;;;0.68;;
50954;SDS011;36966;48.064;-0.792;2022-08-25T00:13:42;0.65;;;0.40;;
50954;SDS011;36966;48.064;-0.792;2022-08-25T00:16:03;0.70;;;0.50;;
50954;SDS011;36966;48.064;-0.792;2022-08-25T00:18:23;1.67;;;0.60;;
50954;SDS011;36966;48.064;-0.792;2022-08-25T00:20:42;2.63;;;0.50;;
50954;SDS011;36966;48.064;-0.792;2022-08-25T00:23:02;1.45;;;0.50;;
50954;SDS011;36966;48.064;-0.792;2022-08-25T00:25:21;2.45;;;0.55;;
50954;SDS011;36966;48.064;-0.792;2022-08-25T00:27:41;2.42;;;0.50;;
50954;SDS011;36966;48.064;-0.792;2022-08-25T00:30:01;2.95;;;0.60;;
50954;SDS011;36966;48.064;-0.792;2022-08-25T00:32:22;2.05;;;0.55;;
50954;SDS011;36966;48.064;-0.792;2022-08-25T00:34:43;4.32;;;0.57;;
50954;SDS011;36966;48.064;-0.792;2022-08-25T00:37:03;1.63;;;0.73;;
50954;SDS011;36966;48.064;-0.792;2022-08-25T00:39:25;2.60;;;0.50;;
50954;SDS011;36966;48.064;-0.792;2022-08-25T00:41:46;5.28;;;0.95;;
50954;SDS011;36966;48.064;-0.792;2022-08-25T00:44:07;0.95;;;0.68;;
50954;SDS011;36966;48.064;-0.792;2022-08-25T00:46:29;4.30;;;0.82;;
50954;SDS011;36966;48.064;-0.792;2022-08-25T00:48:52;2.30;;;0.50;;
50954;SDS011;36966;48.064;-0.792;2022-08-25T00:51:24;1.13;;;0.60;;
50954;SDS011;36966;48.064;-0.792;2022-08-25T00:53:50;4.47;;;0.50;;
50954;SDS011;36966;48.064;-0.792;2022-08-25T00:56:10;0.60;;;0.50;;
50954;SDS011;36966;48.064;-0.792;2022-08-25T00:58:30;3.00;;;0.70;;
50954;SDS011;36966;48.064;-0.792;2022-08-25T01:00:53;5.05;;;0.70;;
50954;SDS011;36966;48.064;-0.792;2022-08-25T01:03:15;3.57;;;0.97;;
50954;SDS011;36966;48.064;-0.792;2022-08-25T01:05:37;3.25;;;1.17;;
50954;SDS011;36966;48.064;-0.792;2022-08-25T01:07:58;1.27;;;0.73;;
50954;SDS011;36966;48.064;-0.792;2022-08-25T01:10:20;2.53;;;0.60;;
50954;SDS011;36966;48.064;-0.792;2022-08-25T01:12:41;1.05;;;0.50;;
50954;SDS011;36966;48.064;-0.792;2022-08-25T01:15:01;6.20;;;0.68;;
50954;SDS011;36966;48.064;-0.792;2022-08-25T01:17:24;2.50;;;0.65;;
50954;SDS011;36966;48.064;-0.792;2022-08-25T01:19:45;1.85;;;0.60;;
50954;SDS011;36966;48.064;-0.792;2022-08-25T01:22:04;3.13;;;0.57;;
50954;SDS011;36966;48.064;-0.792;2022-08-25T01:26:49;2.00;;;0.63;;
50954;SDS011;36966;48.064;-0.792;2022-08-25T01:29:09;0.93;;;0.60;;
50954;SDS011;36966;48.064;-0.792;2022-08-25T01:31:42;0.95;;;0.43;;
50954;SDS011;36966;48.064;-0.792;2022-08-25T01:34:03;2.05;;;0.60;;
50954;SDS011;36966;48.064;-0.792;2022-08-25T01:36:24;2.50;;;0.80;;
50954;SDS011;36966;48.064;-0.792;2022-08-25T01:38:45;1.63;;;0.80;;
50954;SDS011;36966;48.064;-0.792;2022-08-25T01:41:05;2.35;;;0.52;;
50954;SDS011;36966;48.064;-0.792;2022-08-25T01:43:29;4.32;;;0.70;;
50954;SDS011;36966;48.064;-0.792;2022-08-25T01:45:54;3.55;;;1.67;;
50954;SDS011;36966;48.064;-0.792;2022-08-25T01:48:13;1.55;;;0.57;;
50954;SDS011;36966;48.064;-0.792;2022-08-25T01:50:33;1.23;;;0.50;;
50954;SDS011;36966;48.064;-0.792;2022-08-25T01:52:54;6.57;;;0.82;;
50954;SDS011;36966;48.064;-0.792;2022-08-25T01:55:16;2.08;;;1.10;;
50954;SDS011;36966;48.064;-0.792;2022-08-25T01:57:36;2.13;;;0.60;;
50954;SDS011;36966;48.064;-0.792;2022-08-25T01:59:56;8.43;;;1.02;;
50954;SDS011;36966;48.064;-0.792;2022-08-25T02:02:16;2.85;;;0.70;;
50954;SDS011;36966;48.064;-0.792;2022-08-25T02:04:35;3.38;;;0.75;;
50954;SDS011;36966;48.064;-0.792;2022-08-25T02:06:54;4.60;;;0.93;;
50954;SDS011;36966;48.064;-0.792;2022-08-25T02:09:14;1.80;;;0.40;;
50954;SDS011;36966;48.064;-0.792;2022-08-25T02:11:35;3.20;;;1.08;;
50954;SDS011;36966;48.064;-0.792;2022-08-25T02:13:56;1.10;;;0.82;;
50954;SDS011;36966;48.064;-0.792;2022-08-25T02:16:21;2.70;;;0.55;;
50954;SDS011;36966;48.064;-0.792;2022-08-25T02:18:46;1.42;;;0.80;;
50954;SDS011;36966;48.064;-0.792;2022-08-25T02:21:05;2.88;;;0.50;;
50954;SDS011;36966;48.064;-0.792;2022-08-25T02:23:24;5.18;;;0.77;;
50954;SDS011;36966;48.064;-0.792;2022-08-25T02:25:44;1.23;;;0.75;;
50954;SDS011;36966;48.064;-0.792;2022-08-25T02:28:05;3.65;;;0.50;;
50954;SDS011;36966;48.064;-0.792;2022-08-25T02:30:26;3.20;;;0.93;;
50954;SDS011;36966;48.064;-0.792;2022-08-25T02:32:45;3.40;;;0.65;;
50954;SDS011;36966;48.064;-0.792;2022-08-25T02:35:05;1.10;;;0.70;;
50954;SDS011;36966;48.064;-0.792;2022-08-25T02:37:25;2.17;;;0.50;;
50954;SDS011;36966;48.064;-0.792;2022-08-25T02:39:44;4.35;;;0.95;;
50954;SDS011;36966;48.064;-0.792;2022-08-25T02:42:04;1.45;;;0.60;;
50954;SDS011;36966;48.064;-0.792;2022-08-25T02:44:23;0.90;;;0.65;;
50954;SDS011;36966;48.064;-0.792;2022-08-25T02:46:42;5.45;;;1.30;;
50954;SDS011;36966;48.064;-0.792;2022-08-25T02:49:02;1.38;;;0.70;;
50954;SDS011;36966;48.064;-0.792;2022-08-25T02:51:23;1.50;;;0.70;;
50954;SDS011;36966;48.064;-0.792;2022-08-25T02:53:43;1.33;;;0.52;;
50954;SDS011;36966;48.064;-0.792;2022-08-25T02:56:05;3.78;;;0.80;;
50954;SDS011;36966;48.064;-0.792;2022-08-25T02:58:26;1.33;;;0.50;;
50954;SDS011;36966;48.064;-0.792;2022-08-25T03:00:47;1.77;;;0.70;;
50954;SDS011;36966;48.064;-0.792;2022-08-25T03:03:06;2.38;;;0.85;;
50954;SDS011;36966;48.064;-0.792;2022-08-25T03:05:25;4.45;;;0.88;;
50954;SDS011;36966;48.064;-0.792;2022-08-25T03:07:45;2.50;;;0.60;;
50954;SDS011;36966;48.064;-0.792;2022-08-25T03:10:09;2.03;;;0.75;;
50954;SDS011;36966;48.064;-0.792;2022-08-25T03:12:31;1.98;;;0.85;;
50954;SDS011;36966;48.064;-0.792;2022-08-25T03:14:51;1.73;;;0.73;;
50954;SDS011;36966;48.064;-0.792;2022-08-25T03:17:10;3.40;;;1.02;;
50954;SDS011;36966;48.064;-0.792;2022-08-25T03:19:30;4.32;;;0.85;;
50954;SDS011;36966;48.064;-0.792;2022-08-25T03:21:49;1.42;;;0.90;;
50954;SDS011;36966;48.064;-0.792;2022-08-25T03:24:10;3.30;;;1.00;;
50954;SDS011;36966;48.064;-0.792;2022-08-25T03:26:30;2.65;;;1.80;;
50954;SDS011;36966;48.064;-0.792;2022-08-25T03:29:08;6.55;;;2.13;;
50954;SDS011;36966;48.064;-0.792;2022-08-25T03:31:27;3.55;;;2.28;;
50954;SDS011;36966;48.064;-0.792;2022-08-25T03:33:47;5.53;;;2.20;;
50954;SDS011;36966;48.064;-0.792;2022-08-25T03:36:06;3.25;;;2.65;;
50954;SDS011;36966;48.064;-0.792;2022-08-25T03:38:26;6.25;;;3.65;;
50954;SDS011;36966;48.064;-0.792;2022-08-25T03:40:46;7.28;;;3.55;;
50954;SDS011;36966;48.064;-0.792;2022-08-25T03:43:05;7.22;;;4.22;;
50954;SDS011;36966;48.064;-0.792;2022-08-25T03:45:25;7.57;;;4.80;;
50954;SDS011;36966;48.064;-0.792;2022-08-25T03:47:45;11.38;;;5.68;;
50954;SDS011;36966;48.064;-0.792;2022-08-25T03:50:06;9.13;;;5.88;;
50954;SDS011;36966;48.064;-0.792;2022-08-25T03:52:28;12.35;;;4.78;;
50954;SDS011;36966;48.064;-0.792;2022-08-25T03:54:47;8.55;;;5.07;;
50954;SDS011;36966;48.064;-0.792;2022-08-25T03:57:06;9.60;;;5.70;;
50954;SDS011;36966;48.064;-0.792;2022-08-25T03:59:27;11.93;;;5.57;;
50954;SDS011;36966;48.064;-0.792;2022-08-25T04:01:47;8.23;;;4.97;;
50954;SDS011;36966;48.064;-0.792;2022-08-25T04:04:08;7.28;;;4.93;;
50954;SDS011;36966;48.064;-0.792;2022-08-25T04:06:28;15.70;;;6.75;;
50954;SDS011;36966;48.064;-0.792;2022-08-25T04:08:48;11.35;;;5.53;;
50954;SDS011;36966;48.064;-0.792;2022-08-25T04:11:11;10.07;;;5.80;;
50954;SDS011;36966;48.064;-0.792;2022-08-25T04:13:35;9.02;;;5.25;;
50954;SDS011;36966;48.064;-0.792;2022-08-25T04:15:55;10.55;;;5.22;;
50954;SDS011;36966;48.064;-0.792;2022-08-25T04:18:14;9.50;;;6.20;;
50954;SDS011;36966;48.064;-0.792;2022-08-25T04:20:33;8.93;;;5.25;;
50954;SDS011;36966;48.064;-0.792;2022-08-25T04:22:52;10.90;;;4.72;;
50954;SDS011;36966;48.064;-0.792;2022-08-25T04:25:12;7.05;;;4.65;;
50954;SDS011;36966;48.064;-0.792;2022-08-25T04:27:32;10.05;;;4.75;;
50954;SDS011;36966;48.064;-0.792;2022-08-25T04:29:51;7.55;;;5.05;;
50954;SDS011;36966;48.064;-0.792;2022-08-25T04:32:10;9.23;;;5.60;;
50954;SDS011;36966;48.064;-0.792;2022-08-25T04:34:29;5.60;;;4.38;;
50954;SDS011;36966;48.064;-0.792;2022-08-25T04:36:48;10.75;;;4.45;;
50954;SDS011;36966;48.064;-0.792;2022-08-25T04:39:08;7.88;;;4.60;;
50954;SDS011;36966;48.064;-0.792;2022-08-25T04:41:28;8.95;;;5.28;;
50954;SDS011;36966;48.064;-0.792;2022-08-25T04:43:49;11.10;;;5.88;;
50954;SDS011;36966;48.064;-0.792;2022-08-25T04:46:10;8.45;;;5.90;;
50954;SDS011;36966;48.064;-0.792;2022-08-25T04:48:34;9.57;;;5.63;;
50954;SDS011;36966;48.064;-0.792;2022-08-25T04:50:54;7.40;;;4.63;;
50954;SDS011;36966;48.064;-0.792;2022-08-25T04:53:13;7.30;;;4.35;;
50954;SDS011;36966;48.064;-0.792;2022-08-25T04:55:38;8.88;;;5.22;;
50954;SDS011;36966;48.064;-0.792;2022-08-25T04:58:02;9.82;;;5.10;;
50954;SDS011;36966;48.064;-0.792;2022-08-25T05:00:21;11.73;;;5.80;;
50954;SDS011;36966;48.064;-0.792;2022-08-25T05:02:40;10.02;;;4.75;;
50954;SDS011;36966;48.064;-0.792;2022-08-25T05:04:59;8.57;;;5.45;;
50954;SDS011;36966;48.064;-0.792;2022-08-25T05:07:21;11.70;;;5.07;;
50954;SDS011;36966;48.064;-0.792;2022-08-25T05:09:40;7.72;;;4.25;;
50954;SDS011;36966;48.064;-0.792;2022-08-25T05:12:00;7.70;;;4.70;;
50954;SDS011;36966;48.064;-0.792;2022-08-25T05:14:20;8.27;;;4.85;;
50954;SDS011;36966;48.064;-0.792;2022-08-25T05:16:40;7.28;;;5.13;;
50954;SDS011;36966;48.064;-0.792;2022-08-25T05:18:59;8.38;;;5.15;;
50954;SDS011;36966;48.064;-0.792;2022-08-25T05:21:23;6.47;;;4.55;;
50954;SDS011;36966;48.064;-0.792;2022-08-25T05:23:44;8.05;;;4.63;;
50954;SDS011;36966;48.064;-0.792;2022-08-25T05:26:08;8.23;;;4.75;;
50954;SDS011;36966;48.064;-0.792;2022-08-25T05:28:29;9.15;;;5.10;;
50954;SDS011;36966;48.064;-0.792;2022-08-25T05:30:49;6.95;;;4.15;;
50954;SDS011;36966;48.064;-0.792;2022-08-25T05:33:09;4.32;;;3.28;;
50954;SDS011;36966;48.064;-0.792;2022-08-25T05:35:30;6.90;;;3.50;;
50954;SDS011;36966;48.064;-0.792;2022-08-25T05:37:50;5.15;;;3.80;;
50954;SDS011;36966;48.064;-0.792;2022-08-25T05:40:09;6.95;;;3.55;;
50954;SDS011;36966;48.064;-0.792;2022-08-25T05:42:28;6.55;;;3.13;;
50954;SDS011;36966;48.064;-0.792;2022-08-25T05:44:47;5.00;;;3.65;;
50954;SDS011;36966;48.064;-0.792;2022-08-25T05:47:06;7.15;;;4.07;;
50954;SDS011;36966;48.064;-0.792;2022-08-25T05:49:26;7.70;;;3.80;;
50954;SDS011;36966;48.064;-0.792;2022-08-25T05:51:45;6.03;;;3.33;;
50954;SDS011;36966;48.064;-0.792;2022-08-25T05:54:05;5.47;;;3.78;;
50954;SDS011;36966;48.064;-0.792;2022-08-25T05:56:25;7.10;;;3.75;;
50954;SDS011;36966;48.064;-0.792;2022-08-25T05:58:45;4.63;;;3.60;;
50954;SDS011;36966;48.064;-0.792;2022-08-25T06:01:05;4.80;;;3.47;;
50954;SDS011;36966;48.064;-0.792;2022-08-25T06:03:44;4.53;;;3.22;;
50954;SDS011;36966;48.064;-0.792;2022-08-25T06:06:05;4.57;;;3.40;;
50954;SDS011;36966;48.064;-0.792;2022-08-25T06:08:25;5.05;;;4.05;;
50954;SDS011;36966;48.064;-0.792;2022-08-25T06:10:52;6.82;;;4.05;;
50954;SDS011;36966;48.064;-0.792;2022-08-25T06:13:11;5.43;;;3.90;;
50954;SDS011;36966;48.064;-0.792;2022-08-25T06:15:31;5.22;;;3.70;;
50954;SDS011;36966;48.064;-0.792;2022-08-25T06:17:51;5.68;;;3.55;;
50954;SDS011;36966;48.064;-0.792;2022-08-25T06:20:12;6.07;;;3.40;;
50954;SDS011;36966;48.064;-0.792;2022-08-25T06:22:36;5.28;;;3.45;;
50954;SDS011;36966;48.064;-0.792;2022-08-25T06:24:56;5.80;;;3.70;;
50954;SDS011;36966;48.064;-0.792;2022-08-25T06:27:15;5.22;;;3.53;;
50954;SDS011;36966;48.064;-0.792;2022-08-25T06:29:35;4.78;;;3.13;;
50954;SDS011;36966;48.064;-0.792;2022-08-25T06:31:54;7.05;;;3.85;;
50954;SDS011;36966;48.064;-0.792;2022-08-25T06:34:13;5.45;;;3.45;;
50954;SDS011;36966;48.064;-0.792;2022-08-25T06:36:33;4.70;;;3.17;;
50954;SDS011;36966;48.064;-0.792;2022-08-25T06:38:53;7.18;;;3.17;;
50954;SDS011;36966;48.064;-0.792;2022-08-25T06:41:12;6.45;;;4.10;;
50954;SDS011;36966;48.064;-0.792;2022-08-25T06:43:32;5.40;;;4.07;;
50954;SDS011;36966;48.064;-0.792;2022-08-25T06:45:52;8.00;;;4.43;;
50954;SDS011;36966;48.064;-0.792;2022-08-25T06:48:11;5.00;;;3.40;;
50954;SDS011;36966;48.064;-0.792;2022-08-25T06:50:30;6.05;;;4.68;;
50954;SDS011;36966;48.064;-0.792;2022-08-25T06:52:49;7.93;;;4.47;;
50954;SDS011;36966;48.064;-0.792;2022-08-25T06:55:09;5.40;;;3.75;;
50954;SDS011;36966;48.064;-0.792;2022-08-25T06:57:29;4.55;;;3.42;;
50954;SDS011;36966;48.064;-0.792;2022-08-25T06:59:51;7.90;;;4.00;;
50954;SDS011;36966;48.064;-0.792;2022-08-25T07:02:10;6.43;;;4.10;;
50954;SDS011;36966;48.064;-0.792;2022-08-25T07:04:30;6.28;;;3.67;;
50954;SDS011;36966;48.064;-0.792;2022-08-25T07:06:50;7.85;;;3.58;;
50954;SDS011;36966;48.064;-0.792;2022-08-25T07:09:10;6.75;;;3.20;;
50954;SDS011;36966;48.064;-0.792;2022-08-25T07:11:30;5.47;;;3.65;;
50954;SDS011;36966;48.064;-0.792;2022-08-25T07:13:52;6.53;;;3.90;;
50954;SDS011;36966;48.064;-0.792;2022-08-25T07:16:11;6.97;;;3.83;;
50954;SDS011;36966;48.064;-0.792;2022-08-25T07:18:34;6.30;;;3.65;;
50954;SDS011;36966;48.064;-0.792;2022-08-25T07:20:54;6.63;;;4.00;;
50954;SDS011;36966;48.064;-0.792;2022-08-25T07:23:14;5.63;;;3.30;;
50954;SDS011;36966;48.064;-0.792;2022-08-25T07:25:34;5.28;;;3.97;;
50954;SDS011;36966;48.064;-0.792;2022-08-25T07:27:53;5.32;;;3.15;;
50954;SDS011;36966;48.064;-0.792;2022-08-25T07:30:13;5.85;;;3.65;;
50954;SDS011;36966;48.064;-0.792;2022-08-25T07:32:34;6.57;;;3.20;;
50954;SDS011;36966;48.064;-0.792;2022-08-25T07:34:53;5.82;;;3.58;;
50954;SDS011;36966;48.064;-0.792;2022-08-25T07:37:31;5.00;;;3.15;;
50954;SDS011;36966;48.064;-0.792;2022-08-25T07:39:51;5.28;;;3.40;;
50954;SDS011;36966;48.064;-0.792;2022-08-25T07:42:11;6.40;;;3.22;;
50954;SDS011;36966;48.064;-0.792;2022-08-25T07:44:31;6.05;;;3.42;;
50954;SDS011;36966;48.064;-0.792;2022-08-25T07:46:50;6.45;;;4.00;;
50954;SDS011;36966;48.064;-0.792;2022-08-25T07:49:10;5.43;;;3.47;;
50954;SDS011;36966;48.064;-0.792;2022-08-25T07:51:29;5.20;;;3.55;;
50954;SDS011;36966;48.064;-0.792;2022-08-25T07:53:49;6.20;;;3.20;;
50954;SDS011;36966;48.064;-0.792;2022-08-25T07:56:09;5.55;;;3.53;;
50954;SDS011;36966;48.064;-0.792;2022-08-25T07:58:29;5.97;;;3.20;;
50954;SDS011;36966;48.064;-0.792;2022-08-25T08:00:48;4.68;;;3.10;;
50954;SDS011;36966;48.064;-0.792;2022-08-25T08:03:10;4.43;;;2.92;;
50954;SDS011;36966;48.064;-0.792;2022-08-25T08:05:30;3.78;;;2.88;;
50954;SDS011;36966;48.064;-0.792;2022-08-25T08:07:50;5.50;;;3.17;;
50954;SDS011;36966;48.064;-0.792;2022-08-25T08:10:11;3.97;;;2.65;;
50954;SDS011;36966;48.064;-0.792;2022-08-25T08:12:32;5.60;;;3.35;;
50954;SDS011;36966;48.064;-0.792;2022-08-25T08:14:52;5.60;;;3.30;;
50954;SDS011;36966;48.064;-0.792;2022-08-25T08:17:11;7.55;;;3.38;;
50954;SDS011;36966;48.064;-0.792;2022-08-25T08:19:31;8.27;;;3.30;;
50954;SDS011;36966;48.064;-0.792;2022-08-25T08:21:50;5.20;;;3.05;;
50954;SDS011;36966;48.064;-0.792;2022-08-25T08:24:10;8.30;;;3.20;;
50954;SDS011;36966;48.064;-0.792;2022-08-25T08:26:30;7.07;;;3.47;;
50954;SDS011;36966;48.064;-0.792;2022-08-25T08:28:50;5.28;;;3.47;;
50954;SDS011;36966;48.064;-0.792;2022-08-25T08:31:09;5.50;;;2.70;;
50954;SDS011;36966;48.064;-0.792;2022-08-25T08:33:28;6.18;;;3.10;;
50954;SDS011;36966;48.064;-0.792;2022-08-25T08:38:38;4.85;;;3.03;;
50954;SDS011;36966;48.064;-0.792;2022-08-25T08:41:02;6.35;;;2.83;;
50954;SDS011;36966;48.064;-0.792;2022-08-25T08:43:46;5.85;;;3.03;;
50954;SDS011;36966;48.064;-0.792;2022-08-25T08:46:11;6.45;;;2.78;;
50954;SDS011;36966;48.064;-0.792;2022-08-25T08:51:15;3.90;;;2.42;;
50954;SDS011;36966;48.064;-0.792;2022-08-25T09:01:46;4.25;;;2.17;;
50954;SDS011;36966;48.064;-0.792;2022-08-25T09:04:32;6.00;;;2.50;;
50954;SDS011;36966;48.064;-0.792;2022-08-25T09:06:54;8.23;;;2.97;;
50954;SDS011;36966;48.064;-0.792;2022-08-25T09:09:24;3.70;;;2.50;;
50954;SDS011;36966;48.064;-0.792;2022-08-25T09:11:54;5.25;;;2.42;;
50954;SDS011;36966;48.064;-0.792;2022-08-25T09:17:15;3.22;;;1.88;;
50954;SDS011;36966;48.064;-0.792;2022-08-25T09:32:28;3.90;;;1.80;;
50954;SDS011;36966;48.064;-0.792;2022-08-25T09:34:51;4.10;;;2.05;;
50954;SDS011;36966;48.064;-0.792;2022-08-25T09:37:13;3.22;;;1.83;;
50954;SDS011;36966;48.064;-0.792;2022-08-25T09:39:32;3.35;;;1.75;;
50954;SDS011;36966;48.064;-0.792;2022-08-25T09:41:56;2.35;;;1.33;;
50954;SDS011;36966;48.064;-0.792;2022-08-25T09:44:19;3.28;;;1.40;;
50954;SDS011;36966;48.064;-0.792;2022-08-25T09:46:54;2.67;;;1.60;;
50954;SDS011;36966;48.064;-0.792;2022-08-25T09:49:14;2.97;;;1.60;;
50954;SDS011;36966;48.064;-0.792;2022-08-25T09:51:35;1.42;;;1.00;;
50954;SDS011;36966;48.064;-0.792;2022-08-25T09:56:31;4.47;;;1.25;;
50954;SDS011;36966;48.064;-0.792;2022-08-25T09:59:50;4.25;;;2.47;;
50954;SDS011;36966;48.064;-0.792;2022-08-25T10:01:51;3.25;;;2.08;;
50954;SDS011;36966;48.064;-0.792;2022-08-25T10:04:28;3.92;;;1.73;;
50954;SDS011;36966;48.064;-0.792;2022-08-25T10:06:54;2.65;;;1.90;;
50954;SDS011;36966;48.064;-0.792;2022-08-25T10:09:22;3.78;;;1.95;;
50954;SDS011;36966;48.064;-0.792;2022-08-25T10:11:56;2.20;;;1.67;;
50954;SDS011;36966;48.064;-0.792;2022-08-25T10:14:20;2.90;;;1.77;;
50954;SDS011;36966;48.064;-0.792;2022-08-25T10:19:34;2.03;;;1.25;;
50954;SDS011;36966;48.064;-0.792;2022-08-25T10:24:43;4.40;;;2.35;;
50954;SDS011;36966;48.064;-0.792;2022-08-25T10:27:13;2.03;;;1.58;;
50954;SDS011;36966;48.064;-0.792;2022-08-25T10:30:04;3.38;;;2.08;;
50954;SDS011;36966;48.064;-0.792;2022-08-25T10:35:11;2.97;;;1.55;;
50954;SDS011;36966;48.064;-0.792;2022-08-25T10:37:38;2.42;;;1.85;;
50954;SDS011;36966;48.064;-0.792;2022-08-25T10:40:09;4.72;;;1.98;;
50954;SDS011;36966;48.064;-0.792;2022-08-25T10:43:04;3.72;;;1.77;;
50954;SDS011;36966;48.064;-0.792;2022-08-25T10:45:25;2.28;;;1.75;;
50954;SDS011;36966;48.064;-0.792;2022-08-25T10:50:42;3.22;;;2.45;;
50954;SDS011;36966;48.064;-0.792;2022-08-25T10:53:18;3.15;;;1.75;;
50954;SDS011;36966;48.064;-0.792;2022-08-25T10:55:50;2.38;;;1.85;;
50954;SDS011;36966;48.064;-0.792;2022-08-25T11:01:18;5.97;;;2.17;;
50954;SDS011;36966;48.064;-0.792;2022-08-25T11:04:06;2.80;;;1.27;;
50954;SDS011;36966;48.064;-0.792;2022-08-25T11:08:55;2.92;;;1.23;;
50954;SDS011;36966;48.064;-0.792;2022-08-25T11:11:29;4.88;;;1.77;;
50954;SDS011;36966;48.064;-0.792;2022-08-25T11:14:10;3.58;;;1.80;;
50954;SDS011;36966;48.064;-0.792;2022-08-25T11:19:15;3.20;;;1.80;;
50954;SDS011;36966;48.064;-0.792;2022-08-25T11:21:51;3.13;;;1.45;;
50954;SDS011;36966;48.064;-0.792;2022-08-25T11:26:58;3.47;;;1.17;;
50954;SDS011;36966;48.064;-0.792;2022-08-25T11:29:23;2.38;;;1.17;;
50954;SDS011;36966;48.064;-0.792;2022-08-25T11:31:46;4.35;;;1.23;;
50954;SDS011;36966;48.064;-0.792;2022-08-25T11:34:10;2.90;;;1.63;;
50954;SDS011;36966;48.064;-0.792;2022-08-25T11:39:10;2.05;;;1.15;;
50954;SDS011;36966;48.064;-0.792;2022-08-25T11:44:42;1.88;;;0.90;;
50954;SDS011;36966;48.064;-0.792;2022-08-25T11:54:51;2.15;;;1.00;;
50954;SDS011;36966;48.064;-0.792;2022-08-25T11:57:23;2.58;;;0.80;;
50954;SDS011;36966;48.064;-0.792;2022-08-25T12:02:18;1.45;;;0.90;;
50954;SDS011;36966;48.064;-0.792;2022-08-25T12:04:48;1.08;;;0.95;;
50954;SDS011;36966;48.064;-0.792;2022-08-25T12:09:28;3.50;;;1.10;;
50954;SDS011;36966;48.064;-0.792;2022-08-25T12:11:51;2.05;;;0.82;;
50954;SDS011;36966;48.064;-0.792;2022-08-25T12:19:22;1.85;;;0.70;;
50954;SDS011;36966;48.064;-0.792;2022-08-25T12:21:42;1.10;;;0.60;;
50954;SDS011;36966;48.064;-0.792;2022-08-25T12:26:37;1.88;;;0.73;;
50954;SDS011;36966;48.064;-0.792;2022-08-25T12:31:56;1.20;;;0.80;;
50954;SDS011;36966;48.064;-0.792;2022-08-25T12:37:28;1.48;;;0.57;;
50954;SDS011;36966;48.064;-0.792;2022-08-25T12:42:06;0.63;;;0.50;;
50954;SDS011;36966;48.064;-0.792;2022-08-25T12:44:46;1.63;;;0.47;;
50954;SDS011;36966;48.064;-0.792;2022-08-25T12:49:30;1.23;;;0.50;;
50954;SDS011;36966;48.064;-0.792;2022-08-25T12:54:30;0.73;;;0.55;;
50954;SDS011;36966;48.064;-0.792;2022-08-25T12:57:06;1.50;;;0.60;;
50954;SDS011;36966;48.064;-0.792;2022-08-25T12:59:50;0.98;;;0.40;;
50954;SDS011;36966;48.064;-0.792;2022-08-25T13:11:10;1.10;;;0.60;;
50954;SDS011;36966;48.064;-0.792;2022-08-25T13:16:27;1.10;;;0.55;;
50954;SDS011;36966;48.064;-0.792;2022-08-25T13:18:47;1.38;;;0.70;;
50954;SDS011;36966;48.064;-0.792;2022-08-25T13:21:09;1.08;;;0.57;;
50954;SDS011;36966;48.064;-0.792;2022-08-25T13:23:37;1.02;;;0.50;;
50954;SDS011;36966;48.064;-0.792;2022-08-25T13:26:00;0.90;;;0.70;;
50954;SDS011;36966;48.064;-0.792;2022-08-25T13:28:23;3.53;;;0.82;;
50954;SDS011;36966;48.064;-0.792;2022-08-25T13:30:49;1.92;;;0.30;;
50954;SDS011;36966;48.064;-0.792;2022-08-25T13:33:19;7.13;;;0.70;;
50954;SDS011;36966;48.064;-0.792;2022-08-25T13:35:45;0.60;;;0.50;;
50954;SDS011;36966;48.064;-0.792;2022-08-25T13:38:14;1.13;;;0.40;;
50954;SDS011;36966;48.064;-0.792;2022-08-25T13:40:34;0.98;;;0.65;;
50954;SDS011;36966;48.064;-0.792;2022-08-25T13:42:55;0.70;;;0.45;;
50954;SDS011;36966;48.064;-0.792;2022-08-25T13:45:19;6.95;;;0.68;;
50954;SDS011;36966;48.064;-0.792;2022-08-25T13:47:41;2.83;;;1.27;;
50954;SDS011;36966;48.064;-0.792;2022-08-25T13:55:19;1.60;;;0.47;;
50954;SDS011;36966;48.064;-0.792;2022-08-25T13:57:40;2.22;;;0.50;;
50954;SDS011;36966;48.064;-0.792;2022-08-25T14:00:04;1.30;;;0.45;;
50954;SDS011;36966;48.064;-0.792;2022-08-25T14:02:47;4.47;;;0.60;;
50954;SDS011;36966;48.064;-0.792;2022-08-25T14:05:09;1.05;;;0.30;;
50954;SDS011;36966;48.064;-0.792;2022-08-25T14:07:30;0.93;;;0.45;;
50954;SDS011;36966;48.064;-0.792;2022-08-25T14:12:33;2.22;;;0.45;;
50954;SDS011;36966;48.064;-0.792;2022-08-25T14:15:03;0.57;;;0.40;;
50954;SDS011;36966;48.064;-0.792;2022-08-25T14:17:35;1.05;;;0.40;;
50954;SDS011;36966;48.064;-0.792;2022-08-25T14:19:56;0.75;;;0.30;;
50954;SDS011;36966;48.064;-0.792;2022-08-25T14:22:16;0.70;;;0.30;;
50954;SDS011;36966;48.064;-0.792;2022-08-25T14:24:35;5.97;;;0.30;;
50954;SDS011;36966;48.064;-0.792;2022-08-25T14:26:54;3.90;;;0.50;;
50954;SDS011;36966;48.064;-0.792;2022-08-25T14:29:13;6.28;;;0.30;;
50954;SDS011;36966;48.064;-0.792;2022-08-25T14:31:35;2.30;;;0.28;;
50954;SDS011;36966;48.064;-0.792;2022-08-25T14:36:22;3.10;;;0.30;;
50954;SDS011;36966;48.064;-0.792;2022-08-25T14:38:42;4.13;;;0.20;;
50954;SDS011;36966;48.064;-0.792;2022-08-25T14:41:01;1.25;;;0.57;;
50954;SDS011;36966;48.064;-0.792;2022-08-25T14:43:21;0.40;;;0.20;;
50954;SDS011;36966;48.064;-0.792;2022-08-25T14:45:41;2.08;;;0.30;;
50954;SDS011;36966;48.064;-0.792;2022-08-25T14:48:03;2.75;;;0.20;;
50954;SDS011;36966;48.064;-0.792;2022-08-25T14:50:26;0.52;;;0.45;;
50954;SDS011;36966;48.064;-0.792;2022-08-25T14:52:45;1.00;;;0.50;;
50954;SDS011;36966;48.064;-0.792;2022-08-25T14:55:04;0.40;;;0.20;;
50954;SDS011;36966;48.064;-0.792;2022-08-25T14:57:24;0.73;;;0.50;;
50954;SDS011;36966;48.064;-0.792;2022-08-25T14:59:44;0.73;;;0.30;;
50954;SDS011;36966;48.064;-0.792;2022-08-25T15:02:04;2.83;;;0.30;;
50954;SDS011;36966;48.064;-0.792;2022-08-25T15:04:26;0.75;;;0.47;;
50954;SDS011;36966;48.064;-0.792;2022-08-25T15:06:48;0.70;;;0.38;;
50954;SDS011;36966;48.064;-0.792;2022-08-25T15:09:13;1.45;;;0.40;;
50954;SDS011;36966;48.064;-0.792;2022-08-25T15:11:34;1.85;;;0.30;;
50954;SDS011;36966;48.064;-0.792;2022-08-25T15:13:56;4.20;;;0.50;;
50954;SDS011;36966;48.064;-0.792;2022-08-25T15:16:29;0.90;;;0.35;;
50954;SDS011;36966;48.064;-0.792;2022-08-25T15:18:51;1.48;;;0.40;;
50954;SDS011;36966;48.064;-0.792;2022-08-25T15:21:11;1.13;;;0.40;;
50954;SDS011;36966;48.064;-0.792;2022-08-25T15:23:30;0.82;;;0.30;;
50954;SDS011;36966;48.064;-0.792;2022-08-25T15:25:49;0.80;;;0.20;;
50954;SDS011;36966;48.064;-0.792;2022-08-25T15:28:12;0.43;;;0.20;;
50954;SDS011;36966;48.064;-0.792;2022-08-25T15:30:33;1.83;;;0.60;;
50954;SDS011;36966;48.064;-0.792;2022-08-25T15:32:53;0.60;;;0.30;;
50954;SDS011;36966;48.064;-0.792;2022-08-25T15:35:12;0.70;;;0.40;;
50954;SDS011;36966;48.064;-0.792;2022-08-25T15:37:31;1.00;;;0.30;;
50954;SDS011;36966;48.064;-0.792;2022-08-25T15:39:53;1.38;;;0.20;;
50954;SDS011;36966;48.064;-0.792;2022-08-25T15:42:12;1.05;;;0.50;;
50954;SDS011;36966;48.064;-0.792;2022-08-25T15:44:34;0.93;;;0.28;;
50954;SDS011;36966;48.064;-0.792;2022-08-25T15:46:53;0.60;;;0.30;;
50954;SDS011;36966;48.064;-0.792;2022-08-25T15:49:12;2.95;;;0.32;;
50954;SDS011;36966;48.064;-0.792;2022-08-25T15:51:32;0.63;;;0.30;;
50954;SDS011;36966;48.064;-0.792;2022-08-25T15:53:51;3.00;;;0.20;;
50954;SDS011;36966;48.064;-0.792;2022-08-25T15:56:11;1.58;;;0.22;;
50954;SDS011;36966;48.064;-0.792;2022-08-25T15:58:33;0.88;;;0.38;;
50954;SDS011;36966;48.064;-0.792;2022-08-25T16:00:53;0.55;;;0.20;;
50954;SDS011;36966;48.064;-0.792;2022-08-25T16:03:12;0.30;;;0.20;;